createdAt,value
2018-02-10T00:01:58.276Z,8.30
2018-02-10T00:04:26.194Z,8.43
2018-02-10T00:06:53.760Z,8.30
2018-02-10T00:09:21.332Z,7.77
2018-02-10T00:11:48.948Z,7.97
2018-02-10T00:14:16.582Z,7.97
2018-02-10T00:16:44.157Z,7.80
2018-02-10T00:19:11.895Z,7.40
2018-02-10T00:21:39.477Z,8.27
2018-02-10T00:24:07.080Z,7.60
2018-02-10T00:26:34.703Z,8.27
2018-02-10T00:29:02.298Z,7.53
2018-02-10T00:31:29.882Z,7.90
2018-02-10T00:33:57.542Z,7.80
2018-02-10T00:36:25.159Z,7.40
2018-02-10T00:38:52.749Z,7.60
2018-02-10T00:41:21.322Z,7.60
2018-02-10T00:43:48.948Z,7.73
2018-02-10T00:46:16.581Z,8.00
2018-02-10T00:48:44.219Z,6.90
2018-02-10T00:51:11.806Z,7.70
2018-02-10T00:53:39.391Z,7.40
2018-02-10T00:56:07.033Z,7.77
2018-02-10T00:58:34.684Z,7.07
2018-02-10T01:01:02.244Z,7.47
2018-02-10T01:03:29.870Z,7.27
2018-02-10T01:05:57.519Z,7.67
2018-02-10T01:08:25.092Z,8.07
2018-02-10T01:10:52.719Z,7.27
2018-02-10T01:13:20.283Z,7.97
2018-02-10T01:15:47.857Z,7.77
2018-02-10T01:18:15.760Z,8.10
2018-02-10T01:20:43.626Z,8.73
2018-02-10T01:23:11.291Z,8.10
2018-02-10T01:25:38.904Z,7.93
2018-02-10T01:28:06.504Z,8.07
2018-02-10T01:30:34.165Z,8.03
2018-02-10T01:33:01.824Z,7.90
2018-02-10T01:35:29.433Z,7.77
2018-02-10T01:37:57.012Z,8.73
2018-02-10T01:40:24.644Z,8.73
2018-02-10T01:42:52.204Z,9.10
2018-02-10T01:45:19.891Z,8.33
2018-02-10T01:47:47.613Z,8.53
2018-02-10T01:50:21.977Z,8.37
2018-02-10T01:52:49.606Z,8.80
2018-02-10T01:55:17.189Z,8.53
2018-02-10T01:57:44.826Z,9.27
2018-02-10T02:00:12.677Z,9.10
2018-02-10T02:02:40.315Z,8.93
2018-02-10T02:05:07.924Z,9.37
2018-02-10T02:07:35.532Z,9.60
2018-02-10T02:10:03.126Z,8.90
2018-02-10T02:12:30.764Z,8.97
2018-02-10T02:14:58.481Z,9.23
2018-02-10T02:17:26.075Z,9.40
2018-02-10T02:19:53.689Z,10.07
2018-02-10T02:22:21.427Z,10.13
2018-02-10T02:24:49.047Z,9.40
2018-02-10T02:27:16.610Z,9.10
2018-02-10T02:29:44.228Z,8.90
2018-02-10T02:32:11.833Z,8.50
2018-02-10T02:34:39.408Z,9.00
2018-02-10T02:37:07.568Z,9.67
2018-02-10T02:39:35.149Z,9.63
2018-02-10T02:42:02.754Z,9.73
2018-02-10T02:44:30.373Z,8.87
2018-02-10T02:46:57.959Z,9.90
2018-02-10T02:49:25.541Z,9.70
2018-02-10T02:51:53.165Z,9.20
2018-02-10T02:54:20.756Z,8.80
2018-02-10T02:56:48.346Z,8.93
2018-02-10T02:59:16.021Z,9.27
2018-02-10T03:01:43.618Z,9.30
2018-02-10T03:04:12.367Z,9.17
2018-02-10T03:06:40.299Z,9.13
2018-02-10T03:09:10.889Z,8.90
2018-02-10T03:11:38.510Z,8.83
2018-02-10T03:14:07.392Z,9.20
2018-02-10T03:16:35.009Z,9.10
2018-02-10T03:19:02.633Z,8.90
2018-02-10T03:21:30.311Z,8.57
2018-02-10T03:23:58.019Z,8.97
2018-02-10T03:26:25.628Z,9.20
2018-02-10T03:28:53.449Z,8.87
2018-02-10T03:31:21.088Z,9.17
2018-02-10T03:33:49.540Z,9.93
2018-02-10T03:36:17.168Z,8.80
2018-02-10T03:38:44.751Z,9.83
2018-02-10T03:41:14.437Z,9.90
2018-02-10T03:43:42.402Z,9.23
2018-02-10T03:46:10.004Z,9.50
2018-02-10T03:48:37.565Z,9.57
2018-02-10T03:51:05.213Z,9.10
2018-02-10T03:53:32.800Z,10.00
2018-02-10T03:56:00.370Z,9.03
2018-02-10T03:58:28.075Z,9.33
2018-02-10T04:00:55.679Z,10.23
2018-02-10T04:03:23.236Z,9.83
2018-02-10T04:05:50.873Z,10.03
2018-02-10T04:08:18.452Z,9.77
2018-02-10T04:10:46.062Z,10.07
2018-02-10T04:13:13.760Z,9.50
2018-02-10T04:15:41.836Z,10.67
2018-02-10T04:18:09.434Z,11.00
2018-02-10T04:20:37.282Z,10.77
2018-02-10T04:23:04.917Z,12.00
2018-02-10T04:25:33.062Z,12.10
2018-02-10T04:28:00.718Z,13.07
2018-02-10T04:30:28.292Z,11.87
2018-02-10T04:32:55.957Z,13.83
2018-02-10T04:35:23.604Z,14.67
2018-02-10T04:37:51.172Z,13.87
2018-02-10T04:40:18.749Z,13.00
2018-02-10T04:42:46.375Z,12.90
2018-02-10T04:45:13.945Z,13.13
2018-02-10T04:47:41.533Z,13.33
2018-02-10T04:50:09.261Z,12.17
2018-02-10T04:52:36.844Z,11.40
2018-02-10T04:55:04.421Z,12.27
2018-02-10T04:57:32.073Z,12.37
2018-02-10T04:59:59.663Z,11.27
2018-02-10T05:02:27.228Z,11.80
2018-02-10T05:04:55.202Z,11.60
2018-02-10T05:07:22.767Z,12.27
2018-02-10T05:09:50.344Z,11.50
2018-02-10T05:12:17.997Z,12.00
2018-02-10T05:14:45.629Z,12.57
2018-02-10T05:17:13.218Z,11.90
2018-02-10T05:19:40.852Z,11.70
2018-02-10T05:22:08.424Z,10.80
2018-02-10T05:24:36.041Z,11.33
2018-02-10T05:27:03.797Z,11.50
2018-02-10T05:29:31.376Z,11.47
2018-02-10T05:31:58.984Z,12.40
2018-02-10T05:34:26.591Z,13.43
2018-02-10T05:36:54.190Z,13.73
2018-02-10T05:39:21.816Z,16.63
2018-02-10T05:41:49.561Z,14.80
2018-02-10T05:44:17.173Z,12.03
2018-02-10T05:46:44.765Z,12.17
2018-02-10T05:49:12.681Z,12.20
2018-02-10T05:51:40.258Z,10.90
2018-02-10T05:54:07.824Z,11.50
2018-02-10T05:56:35.472Z,10.50
2018-02-10T05:59:03.070Z,11.60
2018-02-10T06:01:30.656Z,11.00
2018-02-10T06:03:58.294Z,11.53
2018-02-10T06:06:25.902Z,11.43
2018-02-10T06:08:53.475Z,10.63
2018-02-10T06:11:21.116Z,11.97
2018-02-10T06:13:48.693Z,12.47
2018-02-10T06:16:16.296Z,13.00
2018-02-10T06:18:44.160Z,11.77
2018-02-10T06:21:11.739Z,13.10
2018-02-10T06:23:39.317Z,11.97
2018-02-10T06:26:06.994Z,11.73
2018-02-10T06:28:34.673Z,11.73
2018-02-10T06:31:02.238Z,12.07
2018-02-10T06:33:30.110Z,12.20
2018-02-10T06:35:58.648Z,12.07
2018-02-10T06:38:26.199Z,12.73
2018-02-10T06:40:53.889Z,12.20
2018-02-10T06:43:21.479Z,12.03
2018-02-10T06:45:49.038Z,12.03
2018-02-10T06:48:16.783Z,12.07
2018-02-10T06:50:44.364Z,12.47
2018-02-10T06:53:11.954Z,12.30
2018-02-10T06:55:40.204Z,12.27
2018-02-10T06:58:07.774Z,12.33
2018-02-10T07:00:35.335Z,12.53
2018-02-10T07:03:02.999Z,12.77
2018-02-10T07:05:30.577Z,12.17
2018-02-10T07:07:58.164Z,12.90
2018-02-10T07:10:25.820Z,12.87
2018-02-10T07:12:53.421Z,11.70
2018-02-10T07:15:21.079Z,13.30
2018-02-10T07:17:48.780Z,12.83
2018-02-10T07:20:16.344Z,13.47
2018-02-10T07:22:43.985Z,14.03
2018-02-10T07:25:11.625Z,14.77
2018-02-10T07:27:39.222Z,13.70
2018-02-10T07:30:06.872Z,14.93
2018-02-10T07:32:34.505Z,16.57
2018-02-10T07:35:02.073Z,16.37
2018-02-10T07:37:29.637Z,18.67
2018-02-10T07:39:57.531Z,18.17
2018-02-10T07:42:25.095Z,17.93
2018-02-10T07:44:53.310Z,18.40
2018-02-10T07:47:21.027Z,17.20
2018-02-10T07:49:48.607Z,17.03
2018-02-10T07:52:16.215Z,16.20
2018-02-10T07:54:43.943Z,15.40
2018-02-10T07:57:12.473Z,15.13
2018-02-10T07:59:40.039Z,16.30
2018-02-10T08:02:07.684Z,15.87
2018-02-10T08:04:35.264Z,14.67
2018-02-10T08:07:02.836Z,14.83
2018-02-10T08:09:30.481Z,16.00
2018-02-10T08:11:58.044Z,14.80
2018-02-10T08:14:25.621Z,15.33
2018-02-10T08:16:53.240Z,16.50
2018-02-10T08:19:20.849Z,15.20
2018-02-10T08:21:48.436Z,16.47
2018-02-10T08:24:16.133Z,16.83
2018-02-10T08:26:43.705Z,16.87
2018-02-10T08:29:11.279Z,16.20
2018-02-10T08:31:38.920Z,16.23
2018-02-10T08:34:06.516Z,16.10
2018-02-10T08:36:34.138Z,15.77
2018-02-10T08:39:02.030Z,16.00
2018-02-10T08:41:29.692Z,16.80
2018-02-10T08:43:57.292Z,16.03
2018-02-10T08:46:24.941Z,15.60
2018-02-10T08:48:52.509Z,15.73
2018-02-10T08:51:20.154Z,21.67
2018-02-10T08:53:47.980Z,16.67
2018-02-10T08:56:15.568Z,17.43
2018-02-10T08:58:43.131Z,16.43
2018-02-10T09:01:11.705Z,16.87
2018-02-10T09:03:39.351Z,16.87
2018-02-10T09:06:06.925Z,16.97
2018-02-10T09:08:34.561Z,17.13
2018-02-10T09:11:02.185Z,16.93
2018-02-10T09:13:29.752Z,18.23
2018-02-10T09:15:57.408Z,17.33
2018-02-10T09:18:24.984Z,18.33
2018-02-10T09:20:52.572Z,18.43
2018-02-10T09:23:20.716Z,18.33
2018-02-10T09:25:48.295Z,17.37
2018-02-10T09:28:15.897Z,16.30
2018-02-10T09:30:44.076Z,17.73
2018-02-10T09:33:11.736Z,18.17
2018-02-10T09:35:39.361Z,19.20
2018-02-10T09:38:07.173Z,18.60
2018-02-10T09:40:34.784Z,18.77
2018-02-10T09:43:02.371Z,19.93
2018-02-10T09:45:30.566Z,20.07
2018-02-10T09:47:58.152Z,22.73
2018-02-10T09:50:25.721Z,21.37
2018-02-10T09:52:53.329Z,21.73
2018-02-10T09:55:20.905Z,23.03
2018-02-10T09:57:48.480Z,23.63
2018-02-10T10:00:16.126Z,21.43
2018-02-10T10:02:43.700Z,22.00
2018-02-10T10:05:11.290Z,25.97
2018-02-10T10:07:38.970Z,21.47
2018-02-10T10:10:06.637Z,28.47
2018-02-10T10:12:34.273Z,32.50
2018-02-10T10:15:01.902Z,31.17
2018-02-10T10:17:29.474Z,36.93
2018-02-10T10:19:57.049Z,33.63
2018-02-10T10:22:24.973Z,23.73
2018-02-10T10:24:52.577Z,22.23
2018-02-10T10:27:20.235Z,21.20
2018-02-10T10:29:47.897Z,18.47
2018-02-10T10:32:15.480Z,19.77
2018-02-10T10:34:43.069Z,19.60
2018-02-10T10:37:10.686Z,22.33
2018-02-10T10:39:38.285Z,20.37
2018-02-10T10:42:05.870Z,22.67
2018-02-10T10:44:33.500Z,18.83
2018-02-10T10:47:01.069Z,19.20
2018-02-10T10:49:28.653Z,19.03
2018-02-10T10:51:56.273Z,20.33
2018-02-10T10:54:23.847Z,19.40
2018-02-10T10:56:51.425Z,21.27
2018-02-10T10:59:19.086Z,19.03
2018-02-10T11:01:47.428Z,24.23
2018-02-10T11:04:15.023Z,23.73
2018-02-10T11:06:42.653Z,26.27
2018-02-10T11:09:10.291Z,19.73
2018-02-10T11:11:37.861Z,19.07
2018-02-10T11:14:05.480Z,18.10
2018-02-10T11:16:33.057Z,19.10
2018-02-10T11:19:00.692Z,18.03
2018-02-10T11:21:28.333Z,20.47
2018-02-10T11:23:55.900Z,19.00
2018-02-10T11:26:23.509Z,18.27
2018-02-10T11:28:51.234Z,19.43
2018-02-10T11:31:18.796Z,19.60
2018-02-10T11:33:46.377Z,18.37
2018-02-10T11:36:14.006Z,21.17
2018-02-10T11:38:41.653Z,19.47
2018-02-10T11:41:09.450Z,21.97
2018-02-10T11:43:37.284Z,22.93
2018-02-10T11:46:04.879Z,21.53
2018-02-10T11:48:32.507Z,21.83
2018-02-10T11:51:00.150Z,18.00
2018-02-10T11:53:27.742Z,19.00
2018-02-10T11:55:55.331Z,20.53
2018-02-10T11:58:22.969Z,19.60
2018-02-10T12:00:50.567Z,19.13
2018-02-10T12:03:18.146Z,21.33
2018-02-10T12:05:45.762Z,20.80
2018-02-10T12:08:13.333Z,19.93
2018-02-10T12:10:40.924Z,20.73
2018-02-10T12:13:09.245Z,22.57
2018-02-10T12:15:36.828Z,20.67
2018-02-10T12:18:04.474Z,21.33
2018-02-10T12:20:32.300Z,20.43
2018-02-10T12:22:59.870Z,17.87
2018-02-10T12:25:28.337Z,20.23
2018-02-10T12:27:55.976Z,20.63
2018-02-10T12:30:23.632Z,20.97
2018-02-10T12:32:51.266Z,21.27
2018-02-10T12:35:19.008Z,20.13
2018-02-10T12:37:46.567Z,19.90
2018-02-10T12:40:14.135Z,17.93
2018-02-10T12:42:41.770Z,16.83
2018-02-10T12:45:09.367Z,17.77
2018-02-10T12:47:54.711Z,18.37
2018-02-10T12:50:22.337Z,18.67
2018-02-10T12:52:50.701Z,17.33
2018-02-10T12:55:18.572Z,19.57
2018-02-10T12:57:46.238Z,19.03
2018-02-10T13:00:13.810Z,20.23
2018-02-10T13:02:41.496Z,18.93
2018-02-10T13:05:09.129Z,17.10
2018-02-10T13:07:36.837Z,18.67
2018-02-10T13:10:04.541Z,21.10
2018-02-10T13:12:32.201Z,20.80
2018-02-10T13:14:59.833Z,23.07
2018-02-10T13:17:27.527Z,18.70
2018-02-10T13:19:55.156Z,23.37
2018-02-10T13:22:22.744Z,22.40
2018-02-10T13:24:50.336Z,20.13
2018-02-10T13:27:17.944Z,20.37
2018-02-10T13:29:46.502Z,21.77
2018-02-10T13:32:14.453Z,23.57
2018-02-10T13:34:42.052Z,20.40
2018-02-10T13:37:09.697Z,21.00
2018-02-10T13:39:37.554Z,22.30
2018-02-10T13:42:05.161Z,22.53
2018-02-10T13:44:32.730Z,21.37
2018-02-10T13:47:00.376Z,21.93
2018-02-10T13:49:28.532Z,20.77
2018-02-10T13:51:56.169Z,22.13
2018-02-10T13:54:23.805Z,21.97
2018-02-10T13:56:51.609Z,21.77
2018-02-10T13:59:20.097Z,21.70
2018-02-10T14:01:47.783Z,21.33
2018-02-10T14:04:15.353Z,22.27
2018-02-10T14:06:42.919Z,22.30
2018-02-10T14:09:10.533Z,21.70
2018-02-10T14:11:38.396Z,21.67
2018-02-10T14:14:05.980Z,21.20
2018-02-10T14:16:33.694Z,23.50
2018-02-10T14:19:01.354Z,24.87
2018-02-10T14:21:28.929Z,24.10
2018-02-10T14:23:56.593Z,22.27
2018-02-10T14:26:24.160Z,22.47
2018-02-10T14:28:51.803Z,23.87
2018-02-10T14:31:19.433Z,22.77
2018-02-10T14:33:47.016Z,22.70
2018-02-10T14:36:14.604Z,24.47
2018-02-10T14:38:42.215Z,23.43
2018-02-10T14:41:09.907Z,23.17
2018-02-10T14:43:37.471Z,23.17
2018-02-10T14:46:05.117Z,24.40
2018-02-10T14:48:32.763Z,23.40
2018-02-10T14:51:00.329Z,27.07
2018-02-10T14:53:27.958Z,26.90
2018-02-10T14:55:55.526Z,27.47
2018-02-10T14:58:23.095Z,28.97
2018-02-10T15:00:50.765Z,32.57
2018-02-10T15:03:18.352Z,30.77
2018-02-10T15:05:45.915Z,27.70
2018-02-10T15:08:13.537Z,31.03
2018-02-10T15:10:41.133Z,26.07
2018-02-10T15:13:08.782Z,32.37
2018-02-10T15:15:36.461Z,26.87
2018-02-10T15:18:04.364Z,33.67
2018-02-10T15:20:31.996Z,31.87
2018-02-10T15:22:59.747Z,29.80
2018-02-10T15:25:27.362Z,28.37
2018-02-10T15:27:55.010Z,27.30
2018-02-10T15:30:34.653Z,26.73
2018-02-10T15:33:15.006Z,27.13
2018-02-10T15:35:42.616Z,29.13
2018-02-10T15:38:10.218Z,26.23
2018-02-10T15:40:38.427Z,27.77
2018-02-10T15:43:06.117Z,29.40
2018-02-10T15:45:33.697Z,28.07
2018-02-10T15:48:01.300Z,30.00
2018-02-10T15:50:29.237Z,27.97
2018-02-10T15:52:56.797Z,28.80
2018-02-10T15:55:24.391Z,28.93
2018-02-10T15:57:52.017Z,30.40
2018-02-10T16:00:19.605Z,28.70
2018-02-10T16:02:47.868Z,30.27
2018-02-10T16:05:15.537Z,50.23
2018-02-10T16:07:43.113Z,63.53
2018-02-10T16:10:10.697Z,122.33
2018-02-10T16:12:39.148Z,151.17
2018-02-10T16:15:06.721Z,279.27
2018-02-10T16:17:34.299Z,379.30
2018-02-10T16:20:01.937Z,372.50
2018-02-10T16:22:29.512Z,294.60
2018-02-10T16:24:57.086Z,385.17
2018-02-10T16:27:24.734Z,358.00
2018-02-10T16:29:52.325Z,509.87
2018-02-10T16:32:19.892Z,375.67
2018-02-10T16:34:48.424Z,192.37
2018-02-10T16:37:16.022Z,140.47
2018-02-10T16:39:43.691Z,127.77
2018-02-10T16:42:11.388Z,69.83
2018-02-10T16:44:39.304Z,56.13
2018-02-10T16:47:06.881Z,61.90
2018-02-10T16:49:34.662Z,51.37
2018-02-10T16:52:02.310Z,33.20
2018-02-10T16:54:29.877Z,32.27
2018-02-10T16:56:57.582Z,31.07
2018-02-10T16:59:25.927Z,27.73
2018-02-10T17:01:53.496Z,28.97
2018-02-10T17:04:21.238Z,27.47
2018-02-10T17:06:48.854Z,29.00
2018-02-10T17:09:16.493Z,29.90
2018-02-10T17:11:44.385Z,28.80
2018-02-10T17:14:11.972Z,28.13
2018-02-10T17:16:39.601Z,27.30
2018-02-10T17:19:07.222Z,29.00
2018-02-10T17:21:34.817Z,30.23
2018-02-10T17:24:02.455Z,27.93
2018-02-10T17:26:30.096Z,28.00
2018-02-10T17:28:57.705Z,29.27
2018-02-10T17:31:25.263Z,28.33
2018-02-10T17:33:53.013Z,28.90
2018-02-10T17:36:20.605Z,31.53
2018-02-10T17:38:49.647Z,29.60
2018-02-10T17:41:17.273Z,29.33
2018-02-10T17:43:44.853Z,27.53
2018-02-10T17:46:13.911Z,28.70
2018-02-10T17:48:42.794Z,28.83
2018-02-10T17:51:12.026Z,28.83
2018-02-10T17:53:41.149Z,27.63
2018-02-10T17:56:08.810Z,30.50
2018-02-10T17:58:38.787Z,33.30
2018-02-10T18:01:07.643Z,29.77
2018-02-10T18:03:35.433Z,29.87
2018-02-10T18:06:03.083Z,30.03
2018-02-10T18:08:30.661Z,31.47
2018-02-10T18:10:59.712Z,31.30
2018-02-10T18:13:27.337Z,28.57
2018-02-10T18:15:54.908Z,30.10
2018-02-10T18:18:22.551Z,33.37
2018-02-10T18:20:50.109Z,30.17
2018-02-10T18:23:17.750Z,30.50
2018-02-10T18:25:45.511Z,29.70
2018-02-10T18:28:13.119Z,32.53
2018-02-10T18:30:40.744Z,30.57
2018-02-10T18:33:10.082Z,28.23
2018-02-10T18:35:37.648Z,27.13
2018-02-10T18:38:05.241Z,30.90
2018-02-10T18:40:32.849Z,30.53
2018-02-10T18:43:00.412Z,27.93
2018-02-10T18:45:27.972Z,28.70
2018-02-10T18:47:55.730Z,33.13
2018-02-10T18:50:23.539Z,27.47
2018-02-10T18:52:51.254Z,37.37
2018-02-10T18:55:18.873Z,25.73
2018-02-10T18:57:46.497Z,23.47
2018-02-10T19:00:14.133Z,24.63
2018-02-10T19:02:41.736Z,24.93
2018-02-10T19:05:09.402Z,23.57
2018-02-10T19:07:37.046Z,22.80
2018-02-10T19:10:04.654Z,23.53
2018-02-10T19:12:32.254Z,23.03
2018-02-10T19:14:59.850Z,20.30
2018-02-10T19:17:27.684Z,19.90
2018-02-10T19:19:56.092Z,20.30
2018-02-10T19:22:23.664Z,20.63
2018-02-10T19:24:51.283Z,19.30
2018-02-10T19:27:18.875Z,18.13
2018-02-10T19:29:46.507Z,15.53
2018-02-10T19:32:14.156Z,17.50
2018-02-10T19:34:42.346Z,16.10
2018-02-10T19:37:09.924Z,16.80
2018-02-10T19:39:38.247Z,17.30
2018-02-10T19:42:05.829Z,17.53
2018-02-10T19:44:33.408Z,15.67
2018-02-10T19:47:01.107Z,15.13
2018-02-10T19:49:28.887Z,18.63
2018-02-10T19:51:56.477Z,15.87
2018-02-10T19:54:24.108Z,15.17
2018-02-10T19:56:51.674Z,13.50
2018-02-10T19:59:19.264Z,12.97
2018-02-10T20:01:46.910Z,11.80
2018-02-10T20:04:14.496Z,10.30
2018-02-10T20:06:42.234Z,10.87
2018-02-10T20:09:10.802Z,10.23
2018-02-10T20:11:38.381Z,8.33
2018-02-10T20:14:05.975Z,9.23
2018-02-10T20:16:33.600Z,9.17
2018-02-10T20:19:01.156Z,8.87
2018-02-10T20:21:28.734Z,8.67
2018-02-10T20:23:56.413Z,9.23
2018-02-10T20:26:23.979Z,9.00
2018-02-10T20:28:51.535Z,9.43
2018-02-10T20:31:19.147Z,8.57
2018-02-10T20:33:46.711Z,9.27
2018-02-10T20:36:14.304Z,9.63
2018-02-10T20:38:41.922Z,11.37
2018-02-10T20:41:09.511Z,9.60
2018-02-10T20:43:37.082Z,10.63
2018-02-10T20:46:04.724Z,10.50
2018-02-10T20:48:32.642Z,11.17
2018-02-10T20:51:01.032Z,14.97
2018-02-10T20:53:28.661Z,13.97
2018-02-10T20:55:56.255Z,9.73
2018-02-10T20:58:23.843Z,9.13
2018-02-10T21:00:54.865Z,9.33
2018-02-10T21:03:22.444Z,9.87
2018-02-10T21:05:50.012Z,10.40
2018-02-10T21:08:17.626Z,10.80
2018-02-10T21:10:45.199Z,11.47
2018-02-10T21:13:12.763Z,9.93
2018-02-10T21:15:40.680Z,10.43
2018-02-10T21:18:08.275Z,10.27
2018-02-10T21:20:35.853Z,9.80
2018-02-10T21:23:03.501Z,10.00
2018-02-10T21:25:31.057Z,9.53
2018-02-10T21:27:58.694Z,8.60
2018-02-10T21:30:26.312Z,8.30
2018-02-10T21:32:53.948Z,9.57
2018-02-10T21:35:21.510Z,9.60
2018-02-10T21:37:49.232Z,9.87
2018-02-10T21:40:16.820Z,9.20
2018-02-10T21:42:44.388Z,7.73
2018-02-10T21:45:11.992Z,7.27
2018-02-10T21:47:39.586Z,8.07
2018-02-10T21:50:07.216Z,7.43
2018-02-10T21:52:35.296Z,8.73
2018-02-10T21:55:02.872Z,9.70
2018-02-10T21:57:31.231Z,7.73
2018-02-10T21:59:58.918Z,8.77
2018-02-10T22:02:26.480Z,7.20
2018-02-10T22:04:54.035Z,7.80
2018-02-10T22:07:21.705Z,6.33
2018-02-10T22:09:49.340Z,6.70
2018-02-10T22:12:16.931Z,6.50
2018-02-10T22:14:44.602Z,6.53
2018-02-10T22:17:12.205Z,6.73
2018-02-10T22:19:39.802Z,6.17
2018-02-10T22:22:07.420Z,6.07
2018-02-10T22:24:35.204Z,5.93
2018-02-10T22:27:02.804Z,5.90
2018-02-10T22:29:30.456Z,6.00
2018-02-10T22:31:58.021Z,6.37
2018-02-10T22:34:25.615Z,6.73
2018-02-10T22:36:53.270Z,6.80
2018-02-10T22:39:20.847Z,5.87
2018-02-10T22:41:48.414Z,5.93
2018-02-10T22:44:16.026Z,5.73
2018-02-10T22:46:43.596Z,6.20
2018-02-10T22:49:11.231Z,5.33
2018-02-10T22:51:38.853Z,5.43
2018-02-10T22:54:07.125Z,4.83
2018-02-10T22:56:34.681Z,4.10
2018-02-10T22:59:02.289Z,3.70
2018-02-10T23:01:29.867Z,3.93
2018-02-10T23:03:57.496Z,3.07
2018-02-10T23:06:26.610Z,3.30
2018-02-10T23:08:54.164Z,2.97
2018-02-10T23:11:21.740Z,2.90
2018-02-10T23:13:49.369Z,2.83
2018-02-10T23:16:16.922Z,2.80
2018-02-10T23:18:44.479Z,2.30
2018-02-10T23:21:12.321Z,2.70
2018-02-10T23:23:39.876Z,3.07
2018-02-10T23:26:07.470Z,3.33
2018-02-10T23:28:35.091Z,2.90
2018-02-10T23:31:02.696Z,3.10
2018-02-10T23:33:30.373Z,3.40
2018-02-10T23:35:58.070Z,3.40
2018-02-10T23:38:25.648Z,3.13
2018-02-10T23:40:53.212Z,3.23
2018-02-10T23:43:20.948Z,3.60
2018-02-10T23:45:48.507Z,4.33
2018-02-10T23:48:16.063Z,5.17
2018-02-10T23:50:43.695Z,3.20
2018-02-10T23:53:11.252Z,3.17
2018-02-10T23:55:38.887Z,3.40
2018-02-10T23:58:06.857Z,3.10
